Time;durP1;ratioP1;P1;durP2;ratioP2;P2;SDS_P1;SDS_P2;PMS_P1;PMS_P2;Temp;Humidity;BMP_temperature;BMP_pressure;BME280_temperature;BME280_humidity;BME280_pressure;Samples;Min_cycle;Max_cycle;Signal;HPM_P1;HPM_P2
2021/06/08 00:02:26;;;;;;;;;;;;;;;17.09;44.15;100282.88;126730;1090;102912;-80
2021/06/08 00:05:15;;;;;;;14.53;5.67;;;;;;;17.04;44.37;100278.80;126580;1090;102911;-80
2021/06/08 00:08:04;;;;;;;9.73;5.33;;;;;;;16.98;44.39;100273.89;126881;1090;102891;-80
2021/06/08 00:10:52;;;;;;;8.33;5.27;;;;;;;16.94;44.61;100272.38;126668;1089;112878;-80
2021/06/08 00:13:40;;;;;;;11.30;6.13;;;;;;;16.89;44.71;100275.29;126665;1090;102922;-79
2021/06/08 00:16:28;;;;;;;10.23;5.47;;;;;;;16.84;44.60;100272.89;126541;1090;113199;-79
2021/06/08 00:19:16;;;;;;;12.00;6.70;;;;;;;16.82;44.84;100273.92;126832;1090;102999;-79
2021/06/08 00:22:04;;;;;;;8.77;5.70;;;;;;;16.81;44.85;100274.86;126641;1089;112974;-79
2021/06/08 00:24:52;;;;;;;11.73;5.47;;;;;;;16.77;45.12;100275.98;126883;1090;103051;-79
2021/06/08 00:27:41;;;;;;;8.70;5.23;;;;;;;16.74;44.96;100270.89;126626;1090;114241;-79
2021/06/08 00:30:29;;;;;;;13.00;5.97;;;;;;;16.71;45.18;100268.45;126678;1088;101862;-79
2021/06/08 00:33:16;;;;;;;9.90;5.90;;;;;;;16.68;45.33;100260.69;126624;1090;113178;-79
2021/06/08 00:36:05;;;;;;;9.00;5.63;;;;;;;16.65;45.61;100269.59;126735;1090;103236;-79
2021/06/08 00:38:53;;;;;;;8.90;5.90;;;;;;;16.62;45.41;100264.50;126846;1089;102933;-80
2021/06/08 00:41:43;;;;;;;9.87;6.03;;;;;;;16.59;45.52;100256.78;126837;1089;113944;-80
2021/06/08 00:44:31;;;;;;;9.93;5.77;;;;;;;16.57;45.68;100258.66;126859;1090;103055;-79
2021/06/08 00:47:18;;;;;;;;;;;;;;;16.55;45.73;100255.27;126604;1088;113057;-79
2021/06/08 00:50:07;;;;;;;11.13;5.67;;;;;;;16.51;45.92;100253.71;126807;1090;102849;-79
2021/06/08 00:52:55;;;;;;;11.03;5.87;;;;;;;16.49;46.08;100256.44;126600;1090;114503;-79
2021/06/08 00:55:43;;;;;;;9.07;5.33;;;;;;;16.46;45.93;100264.51;126902;1090;101148;-80
2021/06/08 00:58:31;;;;;;;7.97;5.47;;;;;;;16.43;46.40;100255.94;126578;1089;112853;-79
2021/06/08 01:01:19;;;;;;;10.50;6.47;;;;;;;16.40;46.43;100256.13;126665;1088;102699;-79
2021/06/08 01:04:10;;;;;;;9.43;6.07;;;;;;;16.36;46.33;100254.59;126614;1089;114111;-79
2021/06/08 01:06:58;;;;;;;8.70;6.00;;;;;;;16.31;46.21;100253.05;126676;1088;102907;-80
2021/06/08 01:09:46;;;;;;;8.25;6.05;;;;;;;16.29;46.68;100259.34;126647;1089;114238;-80
2021/06/08 01:12:34;;;;;;;6.30;5.47;;;;;;;16.24;46.77;100256.97;126726;1090;102886;-80
2021/06/08 01:15:22;;;;;;;8.60;6.10;;;;;;;16.18;46.95;100254.69;126561;1088;114106;-80
2021/06/08 01:18:10;;;;;;;7.87;5.20;;;;;;;16.14;47.09;100254.91;126727;1090;100624;-80
2021/06/08 01:21:05;;;;;;;8.57;5.80;;;;;;;16.10;47.26;100263.92;126727;1090;102644;-80
2021/06/08 01:23:52;;;;;;;7.27;5.67;;;;;;;16.03;47.46;100262.56;126653;1090;112785;-80
2021/06/08 01:26:39;;;;;;;;;;;;;;;15.98;47.79;100262.82;126809;1090;102833;-80
2021/06/08 01:29:30;;;;;;;8.10;6.10;;;;;;;15.94;48.03;100258.63;126639;1090;102861;-80
2021/06/08 01:32:22;;;;;;;7.73;5.63;;;;;;;15.90;47.99;100259.73;126860;1090;102999;-80
2021/06/08 01:35:10;;;;;;;13.13;6.13;;;;;;;15.83;48.04;100258.38;126702;1089;113212;-81
2021/06/08 01:37:58;;;;;;;9.60;6.03;;;;;;;15.80;48.13;100254.14;126741;1090;102874;-80
2021/06/08 01:40:49;;;;;;;10.40;6.03;;;;;;;15.75;48.37;100250.03;126722;1088;113659;-80
2021/06/08 01:43:41;;;;;;;9.87;6.23;;;;;;;15.71;48.31;100252.83;126819;1090;103151;-80
2021/06/08 01:46:28;;;;;;;8.35;6.65;;;;;;;15.68;48.76;100255.63;126646;1090;113978;-80
2021/06/08 01:49:16;;;;;;;8.77;6.17;;;;;;;15.65;48.86;100260.20;126921;1090;102954;-80
2021/06/08 01:52:31;;;;;;;8.80;6.13;;;;;;;15.59;49.14;100256.09;126715;1089;113465;-80
2021/06/08 01:55:30;;;;;;;11.03;6.57;;;;;;;15.58;48.84;100256.16;126789;1089;102997;-80
2021/06/08 01:58:34;;;;;;;8.73;6.33;;;;;;;15.56;49.31;100258.02;126655;1088;113031;-80
2021/06/08 02:01:30;;;;;;;8.73;6.67;;;;;;;15.54;49.43;100260.73;126919;1090;102942;-81
2021/06/08 02:04:37;;;;;;;10.17;6.83;;;;;;;15.54;49.57;100263.36;126760;1089;114101;-80
2021/06/08 02:07:56;;;;;;;8.33;6.97;;;;;;;15.51;49.47;100265.30;126841;1089;101755;-80
2021/06/08 02:11:06;;;;;;;9.83;7.17;;;;;;;15.49;49.75;100261.91;126753;1090;114136;-80
2021/06/08 02:14:35;;;;;;;12.93;7.63;;;;;;;15.47;49.69;100267.25;126795;1090;102962;-80
2021/06/08 02:17:28;;;;;;;8.17;6.60;;;;;;;15.41;50.19;100267.54;126642;1090;114562;-80
2021/06/08 02:20:26;;;;;;;10.60;8.20;;;;;;;15.36;50.22;100262.53;126842;1090;102901;-79
2021/06/08 02:23:20;;;;;;;14.07;8.23;;;;;;;15.35;50.11;100273.13;126721;1089;114434;-80
2021/06/08 02:26:08;;;;;;;12.23;9.77;;;;;;;15.33;50.55;100273.20;126827;1090;102842;-79
2021/06/08 02:28:57;;;;;;;10.17;7.83;;;;;;;15.30;50.24;100277.77;126693;1089;114290;-80
2021/06/08 02:31:47;;;;;;;8.50;6.90;;;;;;;15.28;50.44;100277.01;126915;1090;102920;-80
2021/06/08 02:34:36;;;;;;;9.68;6.93;;;;;;;15.25;50.64;100279.77;126639;1089;114146;-79
2021/06/08 02:37:26;;;;;;;8.73;7.10;;;;;;;15.24;50.90;100278.06;126864;1089;102956;-80
2021/06/08 02:40:14;;;;;;;11.17;7.20;;;;;;;15.23;51.02;100281.63;126856;1090;114175;-80
2021/06/08 02:43:03;;;;;;;10.87;7.73;;;;;;;15.22;50.94;100274.67;126701;1090;103010;-79
2021/06/08 02:45:52;;;;;;;12.13;8.60;;;;;;;15.23;51.44;100273.73;126678;1090;113448;-79
2021/06/08 02:48:40;;;;;;;11.30;7.70;;;;;;;15.24;50.89;100283.32;126728;1090;103307;-79
2021/06/08 02:51:30;;;;;;;9.40;7.17;;;;;;;15.26;51.26;100284.09;126734;1090;102956;-80
2021/06/08 02:54:19;;;;;;;9.90;7.40;;;;;;;15.28;51.26;100285.73;126765;1090;102878;-80
2021/06/08 02:57:09;;;;;;;10.47;7.47;;;;;;;15.28;51.38;100277.85;126819;1090;102846;-80
2021/06/08 03:00:02;;;;;;;10.47;6.77;;;;;;;15.29;51.54;100286.59;126849;1089;113036;-79
2021/06/08 03:02:54;;;;;;;9.05;5.90;;;;;;;15.30;51.65;100289.13;126867;1090;102946;-79
2021/06/08 03:05:48;;;;;;;10.50;6.90;;;;;;;15.32;51.69;100294.31;126723;1090;114235;-80
2021/06/08 03:08:42;;;;;;;7.67;6.63;;;;;;;15.34;51.83;100297.70;126818;1089;102878;-80
2021/06/08 03:11:40;;;;;;;8.90;7.03;;;;;;;15.34;51.92;100297.70;126708;1088;113097;-80
2021/06/08 03:14:29;;;;;;;8.67;6.93;;;;;;;15.37;51.52;100302.80;126889;1090;102959;-80
2021/06/08 03:17:22;;;;;;;8.70;6.90;;;;;;;15.41;51.45;100312.22;126624;1089;114164;-80
2021/06/08 03:20:44;;;;;;;16.43;11.93;;;;;;;15.45;52.05;100302.42;126780;1090;101811;-80
2021/06/08 03:23:42;;;;;;;9.97;8.23;;;;;;;15.48;51.89;100307.52;126531;1092;114387;-79
2021/06/08 03:26:34;;;;;;;11.50;8.83;;;;;;;15.51;51.83;100312.61;126349;1092;103137;-79
2021/06/08 03:29:23;;;;;;;12.60;9.33;;;;;;;15.53;52.15;100316.86;126629;1093;113219;-79
2021/06/08 03:32:13;;;;;;;10.07;8.13;;;;;;;15.55;52.12;100309.73;126634;1092;102917;-79
2021/06/08 03:35:06;;;;;;;10.13;7.63;;;;;;;15.58;51.93;100309.58;126481;1092;114155;-79
2021/06/08 03:37:55;;;;;;;9.20;7.50;;;;;;;15.62;52.17;100316.44;126481;1093;101433;-81
2021/06/08 03:40:44;;;;;;;10.47;8.03;;;;;;;15.68;52.13;100316.11;126300;1093;114323;-80
2021/06/08 03:43:32;;;;;;;9.80;7.13;;;;;;;15.75;52.12;100321.88;126462;1093;102683;-80
2021/06/08 03:46:24;;;;;;;12.60;7.53;;;;;;;15.79;51.88;100312.89;126629;1092;113178;-80
2021/06/08 03:49:14;;;;;;;10.10;7.43;;;;;;;15.84;51.96;100316.16;126474;1092;102879;-80
2021/06/08 03:52:02;;;;;;;10.50;7.87;;;;;;;15.91;51.94;100311.41;126445;1092;114285;-80
2021/06/08 03:54:50;;;;;;;9.75;7.75;;;;;;;15.98;51.82;100315.43;126731;1093;103030;-80
2021/06/08 03:57:43;;;;;;;9.90;7.90;;;;;;;16.05;52.00;100316.79;126710;1093;102869;-80
2021/06/08 04:00:32;;;;;;;11.67;7.80;;;;;;;16.11;51.72;100312.97;126411;1090;113758;-80
2021/06/08 04:03:20;;;;;;;11.33;7.40;;;;;;;16.19;51.92;100318.69;126770;1090;102958;-80
2021/06/08 04:06:08;;;;;;;12.17;7.37;;;;;;;16.24;52.21;100319.28;126677;1089;113131;-80
2021/06/08 04:08:56;;;;;;;10.23;7.90;;;;;;;16.30;51.80;100319.78;126878;1090;102824;-80
2021/06/08 04:11:50;;;;;;;12.57;7.60;;;;;;;16.35;52.00;100316.92;126666;1090;112902;-80
2021/06/08 04:14:39;;;;;;;11.30;7.73;;;;;;;16.40;52.02;100324.56;126868;1090;102856;-80
2021/06/08 04:17:27;;;;;;;12.10;8.27;;;;;;;16.45;52.33;100330.41;126769;1090;114585;-80
2021/06/08 04:20:16;;;;;;;13.70;9.33;;;;;;;16.54;52.04;100332.55;126813;1090;102978;-80
2021/06/08 04:23:04;;;;;;;11.37;8.17;;;;;;;16.63;52.33;100318.86;126727;1089;114106;-80
2021/06/08 04:25:53;;;;;;;11.10;7.33;;;;;;;16.69;52.27;100318.53;126808;1089;102890;-80
2021/06/08 04:28:41;;;;;;;9.83;7.63;;;;;;;16.74;51.99;100324.42;126717;1090;114252;-80
2021/06/08 04:31:29;;;;;;;12.03;8.10;;;;;;;16.81;52.36;100322.27;126777;1090;102890;-80
2021/06/08 04:34:20;;;;;;;11.23;8.13;;;;;;;16.88;52.32;100321.02;126707;1090;113038;-80
2021/06/08 04:37:08;;;;;;;14.73;9.77;;;;;;;16.98;52.27;100311.63;126814;1090;102845;-80
2021/06/08 04:39:55;;;;;;;17.40;12.73;;;;;;;17.09;52.67;100316.29;126909;1090;102933;-79
2021/06/08 04:42:47;;;;;;;21.47;10.80;;;;;;;17.19;52.87;100322.70;126735;1089;114689;-79
2021/06/08 04:45:34;;;;;;;11.10;7.90;;;;;;;17.33;52.42;100314.00;126811;1089;102917;-80
2021/06/08 04:48:23;;;;;;;10.33;7.63;;;;;;;17.39;52.47;100318.90;126717;1090;114307;-80
2021/06/08 04:51:13;;;;;;;10.27;7.70;;;;;;;17.48;52.44;100315.73;126772;1088;102648;-80
2021/06/08 04:54:02;;;;;;;15.03;9.07;;;;;;;17.60;52.48;100319.44;126669;1090;114415;-80
2021/06/08 04:56:51;;;;;;;9.57;7.50;;;;;;;17.68;52.27;100318.05;126724;1088;103313;-80
2021/06/08 05:00:03;;;;;;;11.70;8.60;;;;;;;17.82;52.31;100319.86;126627;1090;113960;-79
2021/06/08 05:03:07;;;;;;;17.55;9.35;;;;;;;18.00;52.71;100324.02;126718;1090;103175;-79
2021/06/08 05:05:59;;;;;;;13.30;9.70;;;;;;;18.18;52.34;100318.53;126653;1089;114252;-80
2021/06/08 05:09:01;;;;;;;20.17;11.00;;;;;;;18.35;52.16;100324.45;126832;1089;102272;-80
2021/06/08 05:11:54;;;;;;;17.97;11.23;;;;;;;18.56;51.88;100316.95;126760;1089;114360;-80
2021/06/08 05:14:52;;;;;;;16.60;9.70;;;;;;;18.76;51.76;100323.63;126855;1090;103010;-80
2021/06/08 05:17:41;;;;;;;13.20;8.87;;;;;;;18.99;51.71;100317.67;126709;1090;114175;-80
2021/06/08 05:20:30;;;;;;;15.50;9.60;;;;;;;19.28;51.50;100315.75;126785;1089;103016;-79
2021/06/08 05:23:19;;;;;;;14.23;9.60;;;;;;;19.62;51.04;100318.80;126584;1089;114614;-79
2021/06/08 05:26:09;;;;;;;12.83;8.43;;;;;;;20.00;50.59;100321.44;126702;1090;102942;-79
2021/06/08 05:28:58;;;;;;;13.55;9.80;;;;;;;20.37;50.46;100322.32;126658;1090;114864;-79
2021/06/08 05:31:47;;;;;;;16.00;9.80;;;;;;;20.69;49.50;100311.23;126716;1088;102926;-79
2021/06/08 05:34:41;;;;;;;16.40;10.97;;;;;;;21.03;49.58;100313.09;126599;1090;114223;-79
2021/06/08 05:37:42;;;;;;;16.43;10.10;;;;;;;21.41;48.87;100318.20;126629;1090;102881;-79
2021/06/08 05:40:39;;;;;;;11.87;7.80;;;;;;;21.82;48.11;100313.31;126652;1090;114718;-80
2021/06/08 05:43:27;;;;;;;13.97;8.90;;;;;;;22.14;47.38;100319.64;126782;1090;103505;-80
2021/06/08 05:46:14;;;;;;;15.27;10.17;;;;;;;22.66;47.28;100311.95;126939;1090;102852;-80
2021/06/08 05:49:08;;;;;;;11.40;9.10;;;;;;;23.18;46.70;100300.55;126760;1090;114172;-80
2021/06/08 05:51:59;;;;;;;11.90;7.13;;;;;;;23.90;46.16;100305.94;126783;1090;102993;-80
2021/06/08 05:54:48;;;;;;;7.25;5.40;;;;;;;25.26;44.34;100304.41;126726;1090;114408;-80
2021/06/08 05:57:37;;;;;;;8.93;6.33;;;;;;;27.52;41.86;100288.56;126886;1090;103384;-80
2021/06/08 06:00:27;;;;;;;11.60;9.07;;;;;;;29.92;38.40;100293.11;126598;1090;114312;-80
2021/06/08 06:03:17;;;;;;;10.53;6.60;;;;;;;32.07;35.13;100280.44;126680;1090;102997;-80
2021/06/08 06:06:07;;;;;;;8.00;5.43;;;;;;;33.81;32.72;100285.50;126587;1090;114519;-79
2021/06/08 06:08:55;;;;;;;6.63;5.00;;;;;;;35.30;30.56;100278.27;126698;1090;102894;-79
2021/06/08 06:11:48;;;;;;;5.93;4.27;;;;;;;36.53;28.35;100269.19;126571;1090;114123;-79
2021/06/08 06:14:36;;;;;;;9.07;6.57;;;;;;;37.60;26.46;100267.33;126759;1089;102961;-79
2021/06/08 06:17:24;;;;;;;11.43;8.00;;;;;;;38.59;25.39;100278.91;126556;1090;113064;-79
2021/06/08 06:20:14;;;;;;;7.83;4.13;;;;;;;39.50;24.14;100264.03;126675;1090;103046;-80
2021/06/08 06:23:03;;;;;;;6.50;5.17;;;;;;;40.54;23.25;100259.42;126603;1090;114224;-79
2021/06/08 06:25:53;;;;;;;7.33;5.63;;;;;;;41.31;21.88;100256.95;126758;1090;102994;-79
2021/06/08 06:28:41;;;;;;;9.03;5.87;;;;;;;41.90;20.84;100264.63;126688;1090;113139;-79
2021/06/08 06:31:30;;;;;;;12.27;9.47;;;;;;;42.49;20.31;100260.13;126685;1089;103062;-79
2021/06/08 06:34:19;;;;;;;11.40;5.30;;;;;;;42.97;19.84;100263.06;126860;1090;102935;-79
2021/06/08 06:37:07;;;;;;;28.57;7.23;;;;;;;43.31;18.80;100250.72;126688;1089;114153;-79
2021/06/08 06:39:58;;;;;;;6.50;4.47;;;;;;;43.73;18.21;100257.28;126877;1089;102841;-80
2021/06/08 06:42:48;;;;;;;15.23;8.73;;;;;;;44.07;18.08;100258.52;126626;1090;115028;-79
2021/06/08 06:45:40;;;;;;;20.17;8.83;;;;;;;44.13;17.26;100254.70;126654;1089;103037;-80
2021/06/08 06:48:29;;;;;;;36.67;14.50;;;;;;;44.57;17.28;100257.03;126833;1090;113224;-80
2021/06/08 06:51:17;;;;;;;31.67;13.33;;;;;;;44.86;16.80;100258.13;126933;1089;102831;-80
2021/06/08 06:54:05;;;;;;;22.87;8.57;;;;;;;45.32;16.20;100262.83;126769;1088;113389;-80
2021/06/08 06:56:56;;;;;;;21.00;10.15;;;;;;;45.44;16.16;100260.60;127010;1089;103125;-82
2021/06/08 06:59:44;;;;;;;19.50;8.07;;;;;;;45.82;15.85;100255.53;126574;1089;114222;-79
2021/06/08 07:02:34;;;;;;;11.30;6.03;;;;;;;46.11;15.73;100255.68;126852;1090;102849;-79
2021/06/08 07:05:29;;;;;;;10.77;6.63;;;;;;;46.23;15.25;100259.75;126665;1089;113202;-79
2021/06/08 07:08:23;;;;;;;11.78;6.58;;;;;;;46.27;15.02;100262.75;126687;1089;102893;-79
2021/06/08 07:11:11;;;;;;;15.80;6.60;;;;;;;46.45;15.08;100261.29;126776;1089;114504;-79
2021/06/08 07:13:59;;;;;;;13.93;4.37;;;;;;;46.56;14.88;100258.18;126758;1090;102647;-79
2021/06/08 07:16:49;;;;;;;12.43;6.80;;;;;;;46.54;14.03;100260.41;126584;1090;114304;-79
2021/06/08 07:19:38;;;;;;;7.40;5.20;;;;;;;46.32;14.50;100259.95;126720;1089;103032;-79
2021/06/08 07:22:26;;;;;;;12.47;8.00;;;;;;;46.10;14.47;100265.88;126800;1090;102877;-79
2021/06/08 07:25:17;;;;;;;12.67;5.33;;;;;;;46.09;14.52;100264.23;126627;1090;113921;-79
2021/06/08 07:28:06;;;;;;;7.23;5.23;;;;;;;46.27;14.11;100262.75;126632;1090;102975;-79
2021/06/08 07:30:55;;;;;;;10.40;6.83;;;;;;;46.40;14.38;100264.91;126609;1089;114075;-79
2021/06/08 07:33:54;;;;;;;7.07;4.00;;;;;;;46.32;13.94;100266.30;126732;1090;102798;-79
2021/06/08 07:36:46;;;;;;;11.40;4.47;;;;;;;46.23;14.12;100264.44;126560;1090;113912;-79
2021/06/08 07:39:47;;;;;;;9.43;6.37;;;;;;;46.19;14.34;100268.88;126756;1089;102894;-80
2021/06/08 07:42:39;;;;;;;7.67;6.20;;;;;;;46.10;14.11;100270.58;126580;1090;114190;-81
2021/06/08 07:45:41;;;;;;;13.80;8.10;;;;;;;45.71;14.30;100268.52;126789;1089;103015;-82
2021/06/08 07:48:29;;;;;;;5.27;4.17;;;;;;;45.33;13.92;100273.56;126826;1090;114049;-84
2021/06/08 07:51:19;;;;;;;5.63;4.20;;;;;;;45.27;14.25;100273.86;126709;1090;103169;-83
2021/06/08 07:54:08;;;;;;;6.53;4.90;;;;;;;45.53;14.30;100271.86;126654;1090;114233;-84
2021/06/08 07:56:57;;;;;;;6.57;4.93;;;;;;;45.51;14.03;100265.80;126729;1090;102908;-83
2021/06/08 07:59:45;;;;;;;5.93;5.00;;;;;;;45.32;14.11;100271.91;126640;1089;114279;-83
2021/06/08 08:02:33;;;;;;;7.80;5.27;;;;;;;45.25;14.50;100271.39;126760;1089;103020;-83
2021/06/08 08:05:23;;;;;;;6.77;5.40;;;;;;;45.21;14.20;100270.23;126676;1089;114210;-83
2021/06/08 08:08:14;;;;;;;9.40;4.53;;;;;;;44.81;14.30;100269.14;126810;1089;102849;-82
2021/06/08 08:11:09;;;;;;;8.87;5.23;;;;;;;44.30;14.33;100271.79;126814;1090;114102;-82
2021/06/08 08:13:59;;;;;;;7.83;5.07;;;;;;;44.00;14.59;100263.45;126979;1089;103068;-82
2021/06/08 08:16:48;;;;;;;7.27;5.33;;;;;;;43.56;14.59;100271.16;126767;1090;102858;-82
2021/06/08 08:19:36;;;;;;;8.63;4.80;;;;;;;43.36;14.72;100267.21;126677;1090;112699;-83
2021/06/08 08:22:24;;;;;;;9.55;6.15;;;;;;;43.28;14.92;100277.84;126759;1090;101650;-81
2021/06/08 08:25:12;;;;;;;5.17;3.90;;;;;;;43.13;15.11;100271.15;126675;1090;113999;-82
2021/06/08 08:28:00;;;;;;;6.87;3.97;;;;;;;42.99;15.16;100269.94;126796;1090;102903;-82
2021/06/08 08:30:48;;;;;;;7.83;5.40;;;;;;;42.60;15.19;100266.55;126664;1090;114117;-82
2021/06/08 08:33:36;;;;;;;5.40;4.00;;;;;;;42.07;15.23;100270.89;127008;1090;102827;-82
2021/06/08 08:36:37;;;;;;;6.97;5.53;;;;;;;41.58;15.42;100272.65;126689;1090;114099;-82
2021/06/08 08:39:26;;;;;;;7.60;4.17;;;;;;;41.29;15.98;100270.03;126892;1090;102965;-81
2021/06/08 08:42:18;;;;;;;9.63;5.07;;;;;;;41.46;16.28;100271.92;126822;1089;113246;-81
2021/06/08 08:45:07;;;;;;;8.30;5.80;;;;;;;41.21;16.51;100256.76;126851;1090;102858;-81
2021/06/08 08:47:55;;;;;;;9.40;7.20;;;;;;;41.06;16.19;100267.45;126680;1090;114109;-81
2021/06/08 08:50:43;;;;;;;11.87;6.97;;;;;;;41.15;16.85;100273.36;126864;1090;104085;-82
2021/06/08 08:53:34;;;;;;;10.20;7.43;;;;;;;41.04;16.44;100267.71;126756;1090;114259;-81
2021/06/08 08:56:41;;;;;;;7.67;4.67;;;;;;;40.68;16.70;100262.69;126975;1089;100912;-80
2021/06/08 08:59:30;;;;;;;13.40;9.43;;;;;;;40.62;16.92;100259.05;126899;1090;114143;-80
2021/06/08 09:02:18;;;;;;;9.57;6.30;;;;;;;40.48;16.91;100262.33;126840;1089;103074;-80
2021/06/08 09:05:06;;;;;;;11.90;6.07;;;;;;;40.18;17.15;100266.09;126886;1089;102968;-80
2021/06/08 09:07:54;;;;;;;10.20;6.40;;;;;;;40.14;17.30;100259.46;126761;1088;114060;-80
2021/06/08 09:10:42;;;;;;;10.33;6.50;;;;;;;40.00;17.47;100258.91;126877;1090;103134;-80
2021/06/08 09:13:31;;;;;;;8.47;6.10;;;;;;;39.79;17.33;100259.52;126673;1088;114178;-79
2021/06/08 09:16:22;;;;;;;7.20;4.97;;;;;;;39.72;17.61;100256.94;126949;1089;101798;-80
2021/06/08 09:19:12;;;;;;;8.95;5.60;;;;;;;39.86;17.79;100260.23;126910;1090;113185;-80
2021/06/08 09:22:00;;;;;;;12.87;5.67;;;;;;;39.92;17.93;100258.44;126806;1090;103065;-81
2021/06/08 09:24:54;;;;;;;10.77;6.33;;;;;;;40.18;17.67;100253.26;126748;1090;114051;-80
2021/06/08 09:27:43;;;;;;;10.50;6.73;;;;;;;40.34;17.47;100245.36;126923;1089;102998;-81
2021/06/08 09:30:36;;;;;;;10.30;3.97;;;;;;;40.11;17.69;100251.75;126780;1090;113158;-81
2021/06/08 09:33:35;;;;;;;8.30;5.37;;;;;;;40.07;17.32;100245.13;126800;1089;102879;-81
2021/06/08 09:36:26;;;;;;;4.70;3.57;;;;;;;39.90;17.65;100250.48;126824;1090;113992;-81
2021/06/08 09:39:20;;;;;;;10.30;6.53;;;;;;;40.09;17.85;100249.27;126805;1090;102940;-81
2021/06/08 09:42:30;;;;;;;6.90;5.07;;;;;;;39.76;17.75;100251.81;126731;1090;114289;-81
2021/06/08 09:45:46;;;;;;;7.67;4.40;;;;;;;39.20;17.95;100245.91;126779;1090;102340;-81
2021/06/08 09:48:54;;;;;;;11.33;7.13;;;;;;;39.07;18.15;100245.27;126655;1090;113964;-80
2021/06/08 09:52:01;;;;;;;13.67;7.60;;;;;;;39.14;18.22;100246.86;126867;1089;102950;-80
2021/06/08 09:54:51;;;;;;;9.83;6.90;;;;;;;39.01;18.16;100246.22;126720;1090;114189;-81
2021/06/08 09:57:40;;;;;;;11.67;8.30;;;;;;;38.37;18.40;100237.73;126915;1090;102854;-80
2021/06/08 10:00:27;;;;;;;5.87;3.70;;;;;;;37.37;19.31;100242.67;126624;1090;114292;-82
2021/06/08 10:03:46;;;;;;;11.37;8.20;;;;;;;36.52;20.08;100248.50;126930;1090;103550;-80
2021/06/08 10:06:41;;;;;;;13.20;9.60;;;;;;;35.63;20.71;100249.25;126860;1090;114259;-80
2021/06/08 10:09:29;;;;;;;9.87;6.07;;;;;;;34.95;21.48;100254.07;126734;1089;103017;-76
2021/06/08 10:12:19;;;;;;;9.63;3.83;;;;;;;34.49;22.09;100251.28;126839;1090;114097;-81
2021/06/08 10:15:10;;;;;;;12.03;4.00;;;;;;;34.02;22.25;100252.95;127047;1090;102866;-80
2021/06/08 10:18:09;;;;;;;8.13;4.30;;;;;;;33.58;22.77;100248.75;126874;1090;113376;-79
2021/06/08 10:20:57;;;;;;;11.47;6.50;;;;;;;33.05;23.12;100252.91;126919;1088;102943;-81
2021/06/08 10:23:45;;;;;;;9.27;6.17;;;;;;;32.63;23.95;100243.73;126735;1090;113269;-81
2021/06/08 10:26:35;;;;;;;8.93;4.90;;;;;;;32.63;24.34;100248.30;126962;1090;102939;-81
2021/06/08 10:29:30;;;;;;;9.67;4.03;;;;;;;32.53;24.48;100243.23;126832;1090;102959;-81
2021/06/08 10:32:19;;;;;;;12.50;8.63;;;;;;;32.44;24.64;100250.61;126867;1089;101394;-82
2021/06/08 10:35:08;;;;;;;7.77;5.40;;;;;;;32.64;24.66;100239.17;126795;1090;102874;-82
2021/06/08 10:37:57;;;;;;;10.03;6.63;;;;;;;32.97;24.38;100240.35;126704;1090;113043;-82
2021/06/08 10:40:51;;;;;;;12.23;7.27;;;;;;;33.44;24.13;100248.86;126818;1089;102933;-81
2021/06/08 10:43:39;;;;;;;7.07;4.67;;;;;;;33.79;23.60;100246.99;126586;1089;113170;-82
2021/06/08 10:46:41;;;;;;;24.20;18.00;;;;;;;34.02;23.44;100242.13;126825;1090;102944;-78
2021/06/08 10:49:34;;;;;;;10.17;7.53;;;;;;;33.88;23.38;100232.28;126689;1089;114266;-78
2021/06/08 10:52:22;;;;;;;17.80;10.10;;;;;;;33.54;23.72;100231.23;126805;1089;103345;-79
2021/06/08 10:55:12;;;;;;;8.10;5.97;;;;;;;33.33;23.85;100234.02;126601;1090;114456;-79
2021/06/08 10:58:01;;;;;;;14.07;7.53;;;;;;;32.89;24.06;100237.80;126663;1090;102967;-79
2021/06/08 11:00:52;;;;;;;11.40;5.77;;;;;;;32.42;24.39;100231.06;126635;1089;114360;-79
2021/06/08 11:03:54;;;;;;;13.03;7.53;;;;;;;31.99;24.56;100229.30;126901;1089;103348;-80
2021/06/08 11:06:53;;;;;;;13.40;9.00;;;;;;;31.52;24.73;100230.48;126662;1089;114502;-80
2021/06/08 11:09:41;;;;;;;17.30;11.10;;;;;;;31.16;25.62;100228.45;126794;1090;102889;-79
2021/06/08 11:12:30;;;;;;;9.10;5.23;;;;;;;30.62;25.85;100225.88;126648;1089;114962;-79
2021/06/08 11:15:21;;;;;;;10.40;5.37;;;;;;;30.14;26.33;100232.36;126819;1090;101791;-79
2021/06/08 11:18:18;;;;;;;14.75;9.75;;;;;;;29.85;27.11;100227.61;126645;1090;114280;-79
2021/06/08 11:21:09;;;;;;;11.20;6.50;;;;;;;29.76;27.79;100229.48;126950;1090;102878;-79
2021/06/08 11:23:58;;;;;;;20.30;6.67;;;;;;;29.93;27.88;100215.97;126671;1090;102875;-79
2021/06/08 11:26:51;;;;;;;9.60;6.70;;;;;;;30.06;27.70;100217.12;126745;1090;102869;-80
2021/06/08 11:29:59;;;;;;;11.90;6.87;;;;;;;30.24;27.57;100222.23;126824;1089;102885;-79
2021/06/08 11:32:48;;;;;;;12.00;8.90;;;;;;;30.51;27.08;100222.73;126636;1090;113012;-79
2021/06/08 11:35:42;;;;;;;8.53;4.57;;;;;;;30.77;27.08;100214.34;126808;1089;103077;-80
2021/06/08 11:38:35;;;;;;;13.97;7.97;;;;;;;30.93;26.76;100206.13;126660;1090;114004;-80
2021/06/08 11:41:24;;;;;;;16.30;11.27;;;;;;;31.06;26.53;100206.35;126892;1090;102868;-79
2021/06/08 11:44:19;;;;;;;14.83;8.40;;;;;;;31.04;25.92;100207.52;126680;1090;114288;-80
2021/06/08 11:47:07;;;;;;;8.50;4.03;;;;;;;30.74;26.22;100206.63;126725;1089;103073;-79
2021/06/08 11:49:59;;;;;;;16.17;10.60;;;;;;;30.48;26.22;100207.78;126674;1090;114064;-79
2021/06/08 11:53:14;;;;;;;9.77;7.27;;;;;;;30.23;26.78;100203.58;126872;1089;102807;-79
2021/06/08 11:56:11;;;;;;;10.33;5.83;;;;;;;30.07;26.91;100213.41;126672;1090;114015;-80
2021/06/08 11:59:07;;;;;;;14.85;9.88;;;;;;;30.20;27.53;100214.70;126793;1090;102884;-80
2021/06/08 12:02:02;;;;;;;13.57;9.00;;;;;;;30.42;27.28;100197.73;126663;1090;114056;-80
2021/06/08 12:05:24;;;;;;;12.33;6.10;;;;;;;30.53;27.78;100191.95;126830;1090;102924;-78
2021/06/08 12:08:32;;;;;;;8.60;5.93;;;;;;;30.47;27.50;100200.72;126726;1088;114259;-79
2021/06/08 12:11:21;;;;;;;22.83;13.97;;;;;;;30.36;27.86;100193.08;126719;1090;101598;-79
2021/06/08 12:14:08;;;;;;;9.43;4.90;;;;;;;30.16;27.09;100186.45;126596;1089;114418;-75
2021/06/08 12:16:59;;;;;;;5.23;3.70;;;;;;;29.96;27.75;100186.88;126822;1089;103005;-80
2021/06/08 12:19:48;;;;;;;6.57;4.83;;;;;;;29.77;27.91;100187.30;126611;1090;113936;-78
2021/06/08 12:22:35;;;;;;;10.27;5.17;;;;;;;29.66;27.55;100185.02;126748;1089;102941;-79
2021/06/08 12:25:24;;;;;;;25.83;17.77;;;;;;;29.66;27.97;100187.70;126664;1090;113409;-80
2021/06/08 12:28:12;;;;;;;14.50;8.03;;;;;;;29.59;28.33;100192.08;126671;1090;102875;-79
2021/06/08 12:31:19;;;;;;;13.13;9.23;;;;;;;29.40;28.37;100185.22;126554;1090;114457;-79
2021/06/08 12:34:11;;;;;;;18.73;10.87;;;;;;;29.17;28.23;100190.48;126726;1090;102844;-79
2021/06/08 12:37:04;;;;;;;21.00;14.33;;;;;;;29.11;28.29;100183.95;126597;1090;114524;-77
2021/06/08 12:39:57;;;;;;;14.63;9.97;;;;;;;29.18;29.22;100189.47;126759;1090;103111;-76
2021/06/08 12:42:47;;;;;;;10.07;7.33;;;;;;;29.23;28.43;100184.42;126592;1090;114637;-81
2021/06/08 12:45:36;;;;;;;14.37;9.80;;;;;;;29.31;28.77;100176.36;126775;1089;102830;-81
2021/06/08 12:48:24;;;;;;;22.63;12.90;;;;;;;29.43;28.73;100172.27;126839;1089;102845;-81
2021/06/08 12:51:13;;;;;;;9.00;5.77;;;;;;;29.34;28.61;100178.70;126773;1090;103435;-80
2021/06/08 12:54:02;;;;;;;7.93;4.53;;;;;;;29.18;28.87;100171.51;126885;1090;102879;-80
2021/06/08 12:56:50;;;;;;;7.73;4.53;;;;;;;29.08;28.55;100173.53;126703;1088;114279;-80